Time;durP1;ratioP1;P1;durP2;ratioP2;P2;SDS_P1;SDS_P2;PMS_P1;PMS_P2;Temp;Humidity;BMP_temperature;BMP_pressure;BME280_temperature;BME280_humidity;BME280_pressure;Samples;Min_cycle;Max_cycle;Signal;HPM_P1;HPM_P2
2020/06/06 00:00:35;;;;;;;1.8;0.4;;;;;;;14.19;71.68652;946.055;;;;
2020/06/06 00:05:30;;;;;;;1.1;0.5;;;;;;;14.2;71.56055;945.9943;;;;
2020/06/06 00:14:37;;;;;;;0.4;0.3;;;;;;;14.18;72.11426;945.9708;;;;
2020/06/06 00:21:43;;;;;;;1;0.6;;;;;;;14.17;72.31055;945.9832;;;;
2020/06/06 00:33:10;;;;;;;1.1;0.5;;;;;;;14.14;72.72266;946.0764;;;;
2020/06/06 00:35:43;;;;;;;1.1;0.5;;;;;;;14.15;73.02734;946.0353;;;;
2020/06/06 00:38:16;;;;;;;1.6;0.4;;;;;;;14.18;72.71777;946.012;;;;
2020/06/06 00:40:52;;;;;;;1.6;0.6;;;;;;;14.08;73.24707;946.0314;;;;
2020/06/06 00:43:17;;;;;;;0.7;0.5;;;;;;;14.11;73.29785;946.1514;;;;
2020/06/06 00:45:43;;;;;;;1;0.6;;;;;;;14.18;73.19434;946.0513;;;;
2020/06/06 00:48:09;;;;;;;1;0.4;;;;;;;14.16;73.27246;946.0481;;;;
2020/06/06 00:50:43;;;;;;;1.5;0.5;;;;;;;14.18;73.28711;946.0617;;;;
2020/06/06 00:53:15;;;;;;;0.5;0.4;;;;;;;14.18;73.47266;945.9922;;;;
2020/06/06 00:55:41;;;;;;;0.6;0.5;;;;;;;14.18;73.47266;945.9807;;;;
2020/06/06 00:58:22;;;;;;;1.7;0.8;;;;;;;14.24;73.70215;945.9119;;;;
2020/06/06 01:04:08;;;;;;;0.8;0.4;;;;;;;14.14;73.92871;945.9191;;;;
2020/06/06 01:07:04;;;;;;;1.3;0.6;;;;;;;14.13;74.30078;945.8702;;;;
2020/06/06 01:09:50;;;;;;;0.5;0.4;;;;;;;14.17;74.15527;945.8586;;;;
2020/06/06 01:12:25;;;;;;;2;0.5;;;;;;;14.15;74.25684;945.8738;;;;
2020/06/06 01:15:09;;;;;;;0.7;0.4;;;;;;;14.15;74.36133;945.9084;;;;
2020/06/06 01:17:34;;;;;;;1.2;0.5;;;;;;;14.19;74.57617;945.9314;;;;
2020/06/06 01:20:08;;;;;;;0.5;0.4;;;;;;;14.15;74.68652;945.9116;;;;
2020/06/06 01:22:38;;;;;;;0.8;0.4;;;;;;;14.17;74.71289;945.8842;;;;
2020/06/06 01:25:28;;;;;;;0.5;0.5;;;;;;;14.19;74.49512;945.8127;;;;
2020/06/06 01:28:01;;;;;;;0.5;0.5;;;;;;;14.24;74.6084;945.7831;;;;
2020/06/06 01:30:39;;;;;;;0.9;0.4;;;;;;;14.19;74.58789;945.6848;;;;
2020/06/06 01:33:04;;;;;;;1;0.5;;;;;;;14.23;74.61719;945.6619;;;;
2020/06/06 01:35:31;;;;;;;1.5;0.5;;;;;;;14.19;74.64453;945.748;;;;
2020/06/06 01:37:56;;;;;;;1.2;0.5;;;;;;;14.22;74.58105;945.6786;;;;
2020/06/06 01:40:41;;;;;;;0.7;0.5;;;;;;;14.27;74.8457;945.7473;;;;
2020/06/06 01:43:23;;;;;;;1.3;0.4;;;;;;;14.24;74.79297;945.6742;;;;
2020/06/06 01:45:53;;;;;;;0.8;0.5;;;;;;;14.22;74.67578;945.7054;;;;
2020/06/06 01:48:23;;;;;;;1.7;0.5;;;;;;;14.23;74.82813;945.6389;;;;
2020/06/06 01:50:54;;;;;;;0.8;0.4;;;;;;;14.27;75.22852;945.5622;;;;
2020/06/06 01:53:24;;;;;;;0.9;0.4;;;;;;;14.25;75.14551;945.541;;;;
2020/06/06 01:55:55;;;;;;;0.9;0.5;;;;;;;14.23;75.12988;945.4603;;;;
2020/06/06 01:58:33;;;;;;;0.9;0.5;;;;;;;14.25;75.11133;945.4623;;;;
2020/06/06 02:01:09;;;;;;;1.7;0.5;;;;;;;14.24;75.13086;945.3775;;;;
2020/06/06 02:03:34;;;;;;;0.7;0.5;;;;;;;14.28;76.81055;945.4152;;;;
2020/06/06 02:06:07;;;;;;;1.1;0.6;;;;;;;14.23;77.82227;945.3727;;;;
2020/06/06 02:08:39;;;;;;;0.6;0.5;;;;;;;14.09;76.93945;945.3973;;;;
2020/06/06 02:11:39;;;;;;;1.1;0.4;;;;;;;14.14;77.89746;945.3751;;;;
2020/06/06 02:14:08;;;;;;;1.5;0.6;;;;;;;14.08;77.8877;945.4506;;;;
2020/06/06 02:16:37;;;;;;;0.7;0.6;;;;;;;14.08;77.93457;945.4188;;;;
2020/06/06 02:19:12;;;;;;;0.9;0.6;;;;;;;14.02;78.2959;945.4722;;;;
2020/06/06 02:26:03;;;;;;;1.2;0.6;;;;;;;14.11;78.66992;945.4428;;;;
2020/06/06 02:30:48;;;;;;;0.6;0.6;;;;;;;14.06;78.25586;945.3596;;;;
2020/06/06 02:33:27;;;;;;;1.3;0.7;;;;;;;13.98;78.38086;945.3894;;;;
2020/06/06 02:35:56;;;;;;;1.3;0.6;;;;;;;14.03;78.45801;945.3738;;;;
2020/06/06 02:38:47;;;;;;;0.8;0.5;;;;;;;14.1;78.12305;945.2703;;;;
2020/06/06 02:41:52;;;;;;;1;0.5;;;;;;;14.07;77.15527;945.2478;;;;
2020/06/06 02:46:59;;;;;;;1.3;0.6;;;;;;;14.14;76.44727;945.2031;;;;
2020/06/06 02:49:49;;;;;;;0.6;0.6;;;;;;;14.14;76.25098;945.207;;;;
2020/06/06 02:52:33;;;;;;;1.1;0.4;;;;;;;14.17;75.83789;945.1903;;;;
2020/06/06 02:55:18;;;;;;;1.2;0.5;;;;;;;14.22;75.80078;945.2106;;;;
2020/06/06 02:57:45;;;;;;;1.2;0.7;;;;;;;14.24;75.375;945.3161;;;;
2020/06/06 03:00:38;;;;;;;0.9;0.5;;;;;;;14.26;75.14551;945.2859;;;;
2020/06/06 03:03:12;;;;;;;0.9;0.6;;;;;;;14.27;75.00781;945.2975;;;;
2020/06/06 03:05:44;;;;;;;1.6;0.5;;;;;;;14.32;74.73828;945.2537;;;;
2020/06/06 03:08:05;;;;;;;0.8;0.5;;;;;;;14.39;74.10059;945.1838;;;;
2020/06/06 03:13:01;;;;;;;1.5;0.7;;;;;;;14.46;73.84473;945.1103;;;;
2020/06/06 03:15:41;;;;;;;0.9;0.5;;;;;;;14.51;73.48145;945.1145;;;;
2020/06/06 03:18:14;;;;;;;1;0.5;;;;;;;14.55;73.24414;945.0687;;;;
2020/06/06 03:20:55;;;;;;;1.1;0.5;;;;;;;14.61;72.79004;945.1264;;;;
2020/06/06 03:23:26;;;;;;;1.3;0.5;;;;;;;14.67;72.49805;945.158;;;;
2020/06/06 03:26:05;;;;;;;0.8;0.4;;;;;;;14.71;72.21387;945.103;;;;
2020/06/06 03:28:30;;;;;;;0.6;0.5;;;;;;;14.77;72.00293;945.1533;;;;
2020/06/06 03:31:06;;;;;;;1.2;0.4;;;;;;;14.78;71.91211;945.1575;;;;
2020/06/06 03:33:31;;;;;;;1.4;0.5;;;;;;;14.82;71.5459;945.16;;;;
2020/06/06 03:35:59;;;;;;;1.2;0.4;;;;;;;14.83;71.88574;945.2794;;;;
2020/06/06 03:38:42;;;;;;;1.3;0.7;;;;;;;14.84;71.87598;945.2799;;;;
2020/06/06 03:41:14;;;;;;;0.6;0.5;;;;;;;14.82;71.64063;945.296;;;;
2020/06/06 03:43:47;;;;;;;1.6;0.6;;;;;;;14.84;71.79395;945.4144;;;;
2020/06/06 03:46:14;;;;;;;2.4;0.5;;;;;;;14.83;71.67676;945.4113;;;;
2020/06/06 03:49:42;;;;;;;1.1;0.6;;;;;;;14.81;71.77832;945.4446;;;;
2020/06/06 03:51:17;;;;;;;0.7;0.5;;;;;;;14.81;71.77637;945.4324;;;;
2020/06/06 03:53:42;;;;;;;0.7;0.5;;;;;;;14.82;71.7793;945.3967;;;;
2020/06/06 03:56:28;;;;;;;0.9;0.4;;;;;;;14.82;71.88379;945.5469;;;;
2020/06/06 03:59:04;;;;;;;0.6;0.4;;;;;;;14.86;71.65723;945.4288;;;;
2020/06/06 04:02:50;;;;;;;1.8;0.6;;;;;;;14.89;71.55762;945.4953;;;;
2020/06/06 04:07:39;;;;;;;1;0.5;;;;;;;14.91;71.57324;945.5074;;;;
2020/06/06 04:09:59;;;;;;;0.6;0.5;;;;;;;14.92;71.59863;945.4635;;;;
2020/06/06 04:12:33;;;;;;;1.1;0.6;;;;;;;14.9;71.71191;945.4872;;;;
2020/06/06 04:15:02;;;;;;;0.7;0.5;;;;;;;14.93;71.66895;945.5178;;;;
2020/06/06 04:17:41;;;;;;;2.5;0.8;;;;;;;14.94;71.64746;945.4864;;;;
2020/06/06 04:20:02;;;;;;;0.6;0.5;;;;;;;14.98;71.58496;945.6805;;;;
2020/06/06 04:22:27;;;;;;;0.6;0.5;;;;;;;14.98;71.68945;945.6289;;;;
2020/06/06 04:24:53;;;;;;;1.4;0.6;;;;;;;14.97;71.60547;945.6195;;;;
2020/06/06 04:27:32;;;;;;;1.1;0.7;;;;;;;15.01;71.63574;945.6324;;;;
2020/06/06 04:30:20;;;;;;;0.6;0.4;;;;;;;15.01;71.45996;945.6727;;;;
2020/06/06 04:32:49;;;;;;;0.5;0.5;;;;;;;15.03;71.39453;945.7264;;;;
2020/06/06 04:35:24;;;;;;;1.1;0.5;;;;;;;15.04;71.26855;945.6523;;;;
2020/06/06 04:38:08;;;;;;;1.4;0.5;;;;;;;15.04;71.36133;945.7858;;;;
2020/06/06 04:40:54;;;;;;;0.9;0.6;;;;;;;15.02;71.41699;945.7126;;;;
2020/06/06 04:43:24;;;;;;;1.1;0.7;;;;;;;15.06;71.53906;945.7053;;;;
2020/06/06 04:46:05;;;;;;;3.1;1.2;;;;;;;15.09;71.42871;945.7784;;;;
2020/06/06 04:48:30;;;;;;;1.9;0.6;;;;;;;15.09;71.48535;945.6703;;;;
2020/06/06 04:50:55;;;;;;;3;0.8;;;;;;;15.06;71.59863;945.8167;;;;
2020/06/06 04:53:31;;;;;;;1.6;0.6;;;;;;;15.12;71.65332;945.7468;;;;
2020/06/06 04:56:05;;;;;;;1.1;0.5;;;;;;;15.09;71.56836;945.7316;;;;
2020/06/06 04:58:36;;;;;;;1.1;0.6;;;;;;;15.09;72.17285;945.702;;;;
2020/06/06 05:01:10;;;;;;;0.7;0.5;;;;;;;15.15;71.68164;945.7214;;;;
2020/06/06 05:03:43;;;;;;;1.5;0.6;;;;;;;15.09;71.70605;945.7343;;;;
2020/06/06 05:06:12;;;;;;;0.9;0.6;;;;;;;15.15;71.7168;945.7098;;;;
2020/06/06 05:08:54;;;;;;;1.2;0.8;;;;;;;15.19;71.68848;945.7205;;;;
2020/06/06 05:11:32;;;;;;;0.7;0.6;;;;;;;15.13;71.52539;945.7234;;;;
2020/06/06 05:14:01;;;;;;;1.3;0.5;;;;;;;15.19;71.28125;945.7664;;;;
2020/06/06 05:16:38;;;;;;;0.6;0.6;;;;;;;15.24;71.71973;945.7885;;;;
2020/06/06 05:19:12;;;;;;;1.7;0.6;;;;;;;15.26;71.56055;945.8488;;;;
2020/06/06 05:21:59;;;;;;;1.6;0.6;;;;;;;15.25;71.30371;945.8069;;;;
2020/06/06 05:24:24;;;;;;;1.1;0.6;;;;;;;15.26;71.39844;945.7889;;;;
2020/06/06 05:26:49;;;;;;;0.8;0.6;;;;;;;15.24;71.29004;945.9041;;;;
2020/06/06 05:29:25;;;;;;;2.2;0.7;;;;;;;15.3;71.14746;945.8461;;;;
2020/06/06 05:32:09;;;;;;;0.9;0.6;;;;;;;15.28;71.34277;945.9247;;;;
2020/06/06 05:34:46;;;;;;;1.7;0.7;;;;;;;15.28;71.16797;945.9517;;;;
2020/06/06 05:37:18;;;;;;;1.1;0.6;;;;;;;15.34;71.16504;945.9833;;;;
2020/06/06 05:42:19;;;;;;;1.2;0.6;;;;;;;15.29;71.39063;945.968;;;;
2020/06/06 05:44:42;;;;;;;0.9;0.5;;;;;;;15.28;71.25;945.9344;;;;
2020/06/06 05:47:08;;;;;;;1.2;0.7;;;;;;;15.27;71.46973;945.9724;;;;
2020/06/06 05:49:39;;;;;;;1.6;0.8;;;;;;;15.32;71.12891;945.9698;;;;
2020/06/06 05:52:04;;;;;;;2;0.7;;;;;;;15.3;71.07813;946.0449;;;;
2020/06/06 05:59:51;;;;;;;0.7;0.6;;;;;;;15.44;70.71777;946.101;;;;
2020/06/06 06:02:31;;;;;;;1.5;0.6;;;;;;;15.47;70.74512;946.1021;;;;
2020/06/06 06:07:30;;;;;;;0.9;0.6;;;;;;;15.56;70.46973;946.2035;;;;
2020/06/06 06:12:16;;;;;;;1.3;0.7;;;;;;;15.61;70.18457;946.2368;;;;
2020/06/06 06:14:37;;;;;;;1.2;0.5;;;;;;;15.61;69.81348;946.2564;;;;
2020/06/06 06:17:12;;;;;;;0.6;0.6;;;;;;;15.69;69.71973;946.2905;;;;
2020/06/06 06:19:37;;;;;;;0.9;0.7;;;;;;;15.78;69.83887;946.2662;;;;
2020/06/06 06:22:09;;;;;;;0.9;0.5;;;;;;;15.85;69.47949;946.2572;;;;
2020/06/06 06:24:39;;;;;;;1.2;0.5;;;;;;;15.85;69.11816;946.2933;;;;
2020/06/06 06:27:13;;;;;;;0.6;0.5;;;;;;;15.92;68.80176;946.2335;;;;
2020/06/06 06:29:38;;;;;;;1.4;0.5;;;;;;;15.94;67.82715;946.4219;;;;
2020/06/06 06:32:05;;;;;;;1.3;0.5;;;;;;;16.01;67.84863;946.3727;;;;
2020/06/06 06:34:38;;;;;;;0.3;0.3;;;;;;;16.14;67.7998;946.4015;;;;
2020/06/06 06:37:04;;;;;;;1;0.4;;;;;;;16.18;67.59668;946.4119;;;;
2020/06/06 06:39:36;;;;;;;0.8;0.3;;;;;;;16.23;67.53223;946.4348;;;;
2020/06/06 06:42:20;;;;;;;1;0.3;;;;;;;16.27;67.50391;946.3292;;;;
2020/06/06 06:45:00;;;;;;;0.9;0.4;;;;;;;16.4;67.34961;946.4628;;;;
2020/06/06 06:47:26;;;;;;;0.4;0.3;;;;;;;16.39;67.19629;946.3591;;;;
2020/06/06 06:49:51;;;;;;;0.8;0.3;;;;;;;16.45;67.14648;946.3611;;;;
2020/06/06 06:52:23;;;;;;;2;0.4;;;;;;;16.48;67.01074;946.5125;;;;
2020/06/06 06:54:51;;;;;;;0.3;0.3;;;;;;;16.48;67.07031;946.4113;;;;
2020/06/06 06:57:17;;;;;;;1;0.3;;;;;;;16.53;67.04395;946.4559;;;;
2020/06/06 06:59:47;;;;;;;1.5;0.3;;;;;;;16.55;67.47852;946.5289;;;;
2020/06/06 07:02:12;;;;;;;0.7;0.3;;;;;;;16.56;67.00098;946.4955;;;;
2020/06/06 07:04:43;;;;;;;0.6;0.3;;;;;;;16.61;67.23145;946.5912;;;;
2020/06/06 07:07:16;;;;;;;0.4;0.3;;;;;;;16.5;67.5166;946.5235;;;;
2020/06/06 07:09:52;;;;;;;0.6;0.3;;;;;;;16.49;67.58496;946.5658;;;;
2020/06/06 07:12:32;;;;;;;2.2;0.4;;;;;;;16.46;67.63965;946.4528;;;;
2020/06/06 07:15:37;;;;;;;0.4;0.4;;;;;;;16.58;67.68066;946.4442;;;;
2020/06/06 07:18:05;;;;;;;1.4;0.3;;;;;;;16.61;67.75488;946.4944;;;;
2020/06/06 07:20:49;;;;;;;0.5;0.4;;;;;;;16.64;67.72559;946.5131;;;;
2020/06/06 07:23:14;;;;;;;1.2;0.4;;;;;;;16.54;67.58203;946.5422;;;;
2020/06/06 07:25:39;;;;;;;0.8;0.5;;;;;;;16.47;67.75781;946.4288;;;;
2020/06/06 07:28:06;;;;;;;1;0.5;;;;;;;16.55;67.71191;946.6133;;;;
2020/06/06 07:30:42;;;;;;;0.9;0.4;;;;;;;16.47;67.54785;946.6418;;;;
2020/06/06 07:33:09;;;;;;;1.2;0.4;;;;;;;16.47;69.32031;946.584;;;;
2020/06/06 07:35:37;;;;;;;1.1;0.6;;;;;;;16.38;70.37793;946.5323;;;;
2020/06/06 07:38:13;;;;;;;1;0.6;;;;;;;16.12;72.87891;946.6287;;;;
2020/06/06 07:40:50;;;;;;;2.5;0.7;;;;;;;16.06;73.58008;946.6722;;;;
2020/06/06 07:43:18;;;;;;;1;0.6;;;;;;;16.06;73.46289;946.6649;;;;
2020/06/06 07:45:43;;;;;;;1;0.6;;;;;;;16.16;74.80859;946.6057;;;;
2020/06/06 07:48:11;;;;;;;2.9;0.6;;;;;;;16.1;75.23047;946.6795;;;;
2020/06/06 07:50:39;;;;;;;1.6;0.6;;;;;;;16.03;74.2959;946.6367;;;;
2020/06/06 07:53:04;;;;;;;2.4;0.8;;;;;;;16.11;73.97168;946.6325;;;;
2020/06/06 07:55:42;;;;;;;0.5;0.5;;;;;;;16.04;72.45605;946.5865;;;;
2020/06/06 07:58:09;;;;;;;0.8;0.7;;;;;;;16.09;72.62793;946.6468;;;;
2020/06/06 08:00:44;;;;;;;1.6;0.6;;;;;;;16.13;72.77441;946.647;;;;
2020/06/06 08:03:14;;;;;;;0.9;0.6;;;;;;;16.09;71.80078;946.6689;;;;
2020/06/06 08:05:40;;;;;;;1.5;0.6;;;;;;;16.11;72.23535;946.6687;;;;
2020/06/06 08:08:06;;;;;;;1.6;0.6;;;;;;;16.11;72.25977;946.7096;;;;
2020/06/06 08:10:49;;;;;;;0.6;0.5;;;;;;;16.04;72.7959;946.6809;;;;
2020/06/06 08:13:14;;;;;;;1.5;0.5;;;;;;;15.95;73.41016;946.6434;;;;
2020/06/06 08:15:46;;;;;;;0.9;0.7;;;;;;;15.95;74.56348;946.5984;;;;
2020/06/06 08:18:21;;;;;;;1.2;0.5;;;;;;;15.99;76.00293;946.5973;;;;
2020/06/06 08:20:46;;;;;;;1;0.6;;;;;;;15.89;75.44824;946.595;;;;
2020/06/06 08:23:19;;;;;;;0.6;0.4;;;;;;;15.92;75.24609;946.7313;;;;
2020/06/06 08:28:20;;;;;;;1.1;0.5;;;;;;;15.97;75.49902;946.642;;;;
2020/06/06 08:30:56;;;;;;;1.1;0.7;;;;;;;15.88;74.71289;946.5941;;;;
2020/06/06 08:33:24;;;;;;;0.5;0.5;;;;;;;15.93;75.61914;946.5947;;;;
2020/06/06 08:35:53;;;;;;;2.5;0.5;;;;;;;15.86;76.75;946.5608;;;;
2020/06/06 08:38:26;;;;;;;1.3;0.6;;;;;;;15.74;75.44824;946.5094;;;;
2020/06/06 08:40:39;;;;;;;0.7;0.6;;;;;;;15.81;76.74219;946.5323;;;;
2020/06/06 08:43:09;;;;;;;1.8;0.5;;;;;;;15.82;76.68555;946.6381;;;;
2020/06/06 08:45:47;;;;;;;0.9;0.7;;;;;;;15.68;78.45215;946.6398;;;;
2020/06/06 08:48:11;;;;;;;0.9;0.6;;;;;;;15.6;78.32324;946.6926;;;;
2020/06/06 08:50:36;;;;;;;0.9;0.5;;;;;;;15.62;78.37305;946.6727;;;;
2020/06/06 08:53:01;;;;;;;1.3;0.5;;;;;;;15.61;79.53516;946.7582;;;;
2020/06/06 08:55:33;;;;;;;1.2;0.6;;;;;;;15.64;80.14648;946.8571;;;;
2020/06/06 08:58:11;;;;;;;1.5;0.7;;;;;;;15.53;80.1377;946.8538;;;;
2020/06/06 09:00:53;;;;;;;0.8;0.6;;;;;;;15.55;80.4209;946.9515;;;;
2020/06/06 09:03:26;;;;;;;0.7;0.6;;;;;;;15.51;81.1123;946.8656;;;;
2020/06/06 09:05:51;;;;;;;1.1;0.6;;;;;;;15.49;81.14258;946.8378;;;;
2020/06/06 09:08:20;;;;;;;1;0.6;;;;;;;15.57;81.73926;946.8223;;;;
2020/06/06 09:11:07;;;;;;;1.9;0.9;;;;;;;15.46;81.17285;946.8746;;;;
2020/06/06 09:13:51;;;;;;;2;0.8;;;;;;;15.42;80.77051;946.8747;;;;
2020/06/06 09:16:39;;;;;;;1.3;0.6;;;;;;;15.39;82.19434;946.8113;;;;
2020/06/06 09:19:04;;;;;;;0.7;0.6;;;;;;;15.37;82.38965;946.8699;;;;
2020/06/06 09:21:41;;;;;;;0.6;0.6;;;;;;;15.39;83.24219;947.0198;;;;
2020/06/06 09:24:19;;;;;;;0.9;0.6;;;;;;;15.42;82.00195;947.0135;;;;
2020/06/06 09:26:42;;;;;;;1.7;0.6;;;;;;;15.41;81.33691;947.0394;;;;
2020/06/06 09:29:10;;;;;;;1.2;0.8;;;;;;;15.51;83.20801;947.0469;;;;
2020/06/06 09:32:39;;;;;;;0.6;0.6;;;;;;;15.6;83.14355;946.9925;;;;
2020/06/06 09:34:44;;;;;;;0.7;0.7;;;;;;;15.75;81.76172;946.9874;;;;
2020/06/06 09:40:01;;;;;;;1.8;0.8;;;;;;;15.97;80.62598;947.1022;;;;
2020/06/06 09:42:07;;;;;;;0.5;0.5;;;;;;;16;79.58398;947.1813;;;;
2020/06/06 09:45:01;;;;;;;0.8;0.6;;;;;;;16.24;79.22949;947.1422;;;;
2020/06/06 09:47:26;;;;;;;2;0.7;;;;;;;16.41;78.71094;947.0528;;;;
2020/06/06 09:49:55;;;;;;;0.7;0.7;;;;;;;16.58;76.80566;947.0045;;;;
2020/06/06 09:52:39;;;;;;;1.1;0.6;;;;;;;16.66;75.01074;946.9568;;;;
2020/06/06 09:54:59;;;;;;;0.7;0.7;;;;;;;16.92;75.5459;946.9376;;;;
2020/06/06 09:57:37;;;;;;;0.6;0.6;;;;;;;16.97;75.19141;946.9989;;;;
2020/06/06 10:08:00;;;;;;;1;0.6;;;;;;;17.38;72.29395;947.0313;;;;
2020/06/06 10:10:33;;;;;;;0.7;0.6;;;;;;;17.52;70.85449;947.0164;;;;
2020/06/06 10:15:56;;;;;;;0.8;0.6;;;;;;;17.57;69.44629;946.9978;;;;
2020/06/06 10:18:17;;;;;;;0.9;0.5;;;;;;;17.79;69.18945;947.0931;;;;
2020/06/06 10:21:13;;;;;;;1.7;0.7;;;;;;;17.71;69.33887;947.1175;;;;
2020/06/06 10:23:20;;;;;;;1.6;0.7;;;;;;;17.88;69.54297;947.05;;;;
2020/06/06 10:25:54;;;;;;;1.9;0.7;;;;;;;18.03;68.26758;947.1998;;;;
2020/06/06 10:28:19;;;;;;;1;0.6;;;;;;;18.05;67.50977;947.1623;;;;
2020/06/06 10:30:48;;;;;;;1.5;0.6;;;;;;;18.06;68.50781;947.1666;;;;
2020/06/06 10:33:18;;;;;;;0.7;0.7;;;;;;;18.14;67.46484;947.3187;;;;
2020/06/06 10:35:50;;;;;;;1.3;0.6;;;;;;;17.63;71.68945;947.274;;;;
2020/06/06 10:40:40;;;;;;;0.9;0.7;;;;;;;17.18;73.18359;947.3858;;;;
2020/06/06 10:43:37;;;;;;;1.1;0.6;;;;;;;17.08;74.53223;947.4164;;;;
2020/06/06 10:46:11;;;;;;;1.3;0.8;;;;;;;17.13;73.20996;947.3337;;;;
2020/06/06 10:50:46;;;;;;;1.2;0.5;;;;;;;16.9;74.59668;947.3822;;;;
2020/06/06 10:53:12;;;;;;;0.5;0.5;;;;;;;16.94;72.85254;947.2151;;;;
2020/06/06 10:55:47;;;;;;;0.4;0.4;;;;;;;16.85;71.57715;947.2486;;;;
2020/06/06 10:58:24;;;;;;;1.2;0.5;;;;;;;17.02;72.95801;947.2386;;;;
2020/06/06 11:00:54;;;;;;;1.2;0.5;;;;;;;17.14;72.7207;947.2238;;;;
2020/06/06 11:03:33;;;;;;;0.7;0.7;;;;;;;17.19;71.29199;947.3461;;;;
2020/06/06 11:06:10;;;;;;;0.7;0.5;;;;;;;17.23;71.97754;947.3516;;;;
2020/06/06 11:08:50;;;;;;;0.6;0.5;;;;;;;17.28;71.69238;947.3575;;;;
2020/06/06 11:11:35;;;;;;;0.7;0.5;;;;;;;17.23;71.25293;947.5229;;;;
2020/06/06 11:14:01;;;;;;;0.7;0.5;;;;;;;17.42;71.51563;947.5837;;;;
2020/06/06 11:16:31;;;;;;;0.9;0.5;;;;;;;17.24;70.42383;947.6017;;;;
2020/06/06 11:19:05;;;;;;;1;0.6;;;;;;;17.29;70.73535;947.5906;;;;
2020/06/06 11:21:43;;;;;;;0.7;0.5;;;;;;;17.37;70.4082;947.6436;;;;
2020/06/06 11:24:08;;;;;;;1.7;0.6;;;;;;;17.33;70.19336;947.6604;;;;
2020/06/06 11:26:38;;;;;;;0.7;0.6;;;;;;;17.23;70.76172;947.587;;;;
2020/06/06 11:29:04;;;;;;;0.6;0.5;;;;;;;17.29;70;947.5912;;;;
2020/06/06 11:31:29;;;;;;;0.4;0.4;;;;;;;17.18;70.56641;947.6873;;;;
2020/06/06 11:33:54;;;;;;;0.4;0.4;;;;;;;17.24;69.67578;947.6017;;;;
2020/06/06 11:36:21;;;;;;;0.6;0.3;;;;;;;17.52;69.52148;947.5563;;;;
2020/06/06 11:38:49;;;;;;;1.2;0.6;;;;;;;17.57;69.71582;947.6702;;;;
2020/06/06 11:41:30;;;;;;;1.5;0.4;;;;;;;17.6;69.27539;947.644;;;;
2020/06/06 11:44:03;;;;;;;0.4;0.4;;;;;;;17.66;67.8584;947.6506;;;;
2020/06/06 11:46:28;;;;;;;0.9;0.5;;;;;;;17.44;68.7959;947.7299;;;;
2020/06/06 11:49:02;;;;;;;0.4;0.4;;;;;;;17.53;68.53906;947.7586;;;;
2020/06/06 11:51:39;;;;;;;0.8;0.4;;;;;;;17.51;69.25293;947.7944;;;;
2020/06/06 11:54:07;;;;;;;0.4;0.4;;;;;;;17.75;67.75488;947.7322;;;;
2020/06/06 11:56:44;;;;;;;0.4;0.4;;;;;;;17.98;67.69727;947.6369;;;;
2020/06/06 11:59:19;;;;;;;0.6;0.5;;;;;;;18.12;66.29102;947.6308;;;;
2020/06/06 12:01:59;;;;;;;0.3;0.3;;;;;;;18.31;65.87402;947.6417;;;;
2020/06/06 12:04:24;;;;;;;1.3;0.4;;;;;;;18.54;65.41602;947.5972;;;;
2020/06/06 12:06:59;;;;;;;1.4;0.6;;;;;;;18.14;65.79004;947.7252;;;;
2020/06/06 12:09:32;;;;;;;1.2;0.4;;;;;;;18.2;65.82227;947.7587;;;;
2020/06/06 12:12:03;;;;;;;1.3;0.4;;;;;;;18.59;65.73926;947.6873;;;;
2020/06/06 12:14:54;;;;;;;1;0.4;;;;;;;18.47;65.69922;947.7548;;;;
2020/06/06 12:17:41;;;;;;;0.8;0.4;;;;;;;18.22;65.5791;947.8425;;;;
2020/06/06 12:19:56;;;;;;;1.6;0.5;;;;;;;18.11;66.09082;947.8389;;;;
2020/06/06 12:22:24;;;;;;;0.6;0.4;;;;;;;18.18;66.41699;947.7559;;;;
2020/06/06 12:25:12;;;;;;;0.8;0.5;;;;;;;18.27;66.54785;947.8052;;;;
2020/06/06 12:27:45;;;;;;;1;0.5;;;;;;;18.37;65.68457;947.8248;;;;
2020/06/06 12:30:30;;;;;;;0.7;0.6;;;;;;;18.33;65.56055;947.8125;;;;
2020/06/06 12:33:05;;;;;;;0.8;0.3;;;;;;;17.91;67.41895;947.7926;;;;
2020/06/06 12:35:38;;;;;;;0.7;0.5;;;;;;;17.78;67.62012;947.8476;;;;
2020/06/06 12:38:09;;;;;;;0.5;0.5;;;;;;;17.68;66.9502;947.8434;;;;
2020/06/06 12:40:57;;;;;;;0.7;0.5;;;;;;;17.25;68.35742;947.8706;;;;
2020/06/06 12:43:33;;;;;;;0.5;0.5;;;;;;;17.08;69.32227;947.9317;;;;
2020/06/06 12:46:09;;;;;;;1.4;0.8;;;;;;;16.91;70.9668;947.8703;;;;
2020/06/06 12:48:44;;;;;;;1;0.7;;;;;;;16.93;72.12598;948.0106;;;;
2020/06/06 12:51:21;;;;;;;1.3;0.6;;;;;;;16.83;73.60352;948.0574;;;;
2020/06/06 12:53:49;;;;;;;1.7;0.8;;;;;;;16.8;72.84082;948.0785;;;;
2020/06/06 12:56:31;;;;;;;2;0.8;;;;;;;16.74;74.43945;948.2195;;;;
2020/06/06 12:59:16;;;;;;;2.8;0.8;;;;;;;16.61;73.2627;948.3231;;;;
2020/06/06 13:02:02;;;;;;;2.5;1.1;;;;;;;16.6;73.96191;948.2754;;;;
2020/06/06 13:04:38;;;;;;;1.2;0.7;;;;;;;16.62;74.43164;948.155;;;;
2020/06/06 13:07:06;;;;;;;0.9;0.7;;;;;;;16.81;73.01758;948.1383;;;;
2020/06/06 13:09:32;;;;;;;2.2;0.8;;;;;;;16.92;74.7168;948.2525;;;;
2020/06/06 13:12:02;;;;;;;0.6;0.6;;;;;;;16.79;74.47168;948.2162;;;;
2020/06/06 13:16:06;;;;;;;1.6;0.6;;;;;;;16.86;74.16895;948.1816;;;;
2020/06/06 13:19:04;;;;;;;0.7;0.6;;;;;;;16.97;73.97656;948.2137;;;;
2020/06/06 13:21:33;;;;;;;1;0.6;;;;;;;17.17;73.68262;948.3337;;;;
2020/06/06 13:24:00;;;;;;;0.8;0.7;;;;;;;17.14;73.95996;948.3864;;;;
2020/06/06 13:26:34;;;;;;;0.8;0.5;;;;;;;17.11;73.81445;948.457;;;;
2020/06/06 13:29:13;;;;;;;1.9;0.6;;;;;;;17;72.72168;948.3946;;;;
2020/06/06 13:31:38;;;;;;;1.6;0.7;;;;;;;17.09;72;948.3993;;;;
2020/06/06 13:34:05;;;;;;;1.2;0.5;;;;;;;17.22;71.27344;948.4824;;;;
2020/06/06 13:36:49;;;;;;;1.1;0.5;;;;;;;17.37;70.40918;948.4185;;;;
2020/06/06 13:39:20;;;;;;;1.1;0.5;;;;;;;17.5;69.73926;948.4324;;;;
2020/06/06 13:41:50;;;;;;;0.7;0.7;;;;;;;17.5;69.7627;948.3253;;;;
2020/06/06 13:44:25;;;;;;;0.7;0.5;;;;;;;17.94;70.31348;948.1933;;;;
2020/06/06 13:47:05;;;;;;;1;0.7;;;;;;;18.25;69.00488;948.2026;;;;
2020/06/06 13:49:34;;;;;;;1;0.7;;;;;;;18.23;70.28906;948.2653;;;;
2020/06/06 13:54:40;;;;;;;2.5;0.8;;;;;;;18.37;68.88281;948.285;;;;
2020/06/06 13:57:07;;;;;;;0.9;0.8;;;;;;;17.83;68.69238;948.1586;;;;
2020/06/06 13:59:46;;;;;;;0.9;0.7;;;;;;;17.74;70.58691;948.202;;;;
2020/06/06 14:02:11;;;;;;;0.8;0.8;;;;;;;17.76;68.65918;948.2506;;;;
2020/06/06 14:04:39;;;;;;;0.7;0.7;;;;;;;17.8;69.42676;948.3103;;;;
2020/06/06 14:07:11;;;;;;;0.8;0.6;;;;;;;17.49;69.79785;948.2687;;;;
2020/06/06 14:09:48;;;;;;;3.3;0.9;;;;;;;17.46;70.51855;948.1203;;;;
2020/06/06 14:12:19;;;;;;;0.6;0.6;;;;;;;18.15;68.625;948.1133;;;;
2020/06/06 14:14:58;;;;;;;1.1;0.6;;;;;;;18.33;68.17285;948.0988;;;;
2020/06/06 14:17:34;;;;;;;1.4;0.7;;;;;;;18.5;67.19141;948.0806;;;;
2020/06/06 14:20:10;;;;;;;1.1;0.7;;;;;;;18.6;66.2334;948.0817;;;;
2020/06/06 14:22:45;;;;;;;1.2;0.7;;;;;;;18.93;65.83691;948.1415;;;;
2020/06/06 14:25:29;;;;;;;1.4;0.9;;;;;;;19.35;65.06738;948.1139;;;;
2020/06/06 14:28:10;;;;;;;0.8;0.6;;;;;;;19.11;65.42969;948.1886;;;;
2020/06/06 14:33:54;;;;;;;2;0.6;;;;;;;19.65;63.43066;948.1417;;;;
2020/06/06 14:36:27;;;;;;;1;0.7;;;;;;;19.19;64.51465;948.1951;;;;
2020/06/06 14:41:44;;;;;;;1.1;0.7;;;;;;;18.56;66.56836;948.1636;;;;
2020/06/06 14:46:54;;;;;;;0.8;0.6;;;;;;;18.37;66.65625;948.0591;;;;
2020/06/06 14:49:38;;;;;;;1.4;0.8;;;;;;;18.1;67.5293;948.0181;;;;
2020/06/06 14:52:33;;;;;;;0.6;0.6;;;;;;;18.12;67.94238;948.0341;;;;
2020/06/06 14:59:38;;;;;;;1.2;0.9;;;;;;;17.5;70.57129;948.0008;;;;
2020/06/06 15:03:02;;;;;;;2.1;1.1;;;;;;;17.57;71.88086;947.9263;;;;
2020/06/06 15:04:54;;;;;;;1.3;1.2;;;;;;;17.87;73.73047;948.0258;;;;
2020/06/06 15:07:28;;;;;;;1.2;1.1;;;;;;;17.69;74.54395;948.0255;;;;
2020/06/06 15:10:09;;;;;;;1.2;1.1;;;;;;;17.64;75.50684;947.9779;;;;
2020/06/06 15:13:29;;;;;;;1.3;1.1;;;;;;;17.58;75.77539;948.0094;;;;
2020/06/06 15:15:01;;;;;;;2.6;1.3;;;;;;;17.5;76.55664;947.995;;;;
2020/06/06 15:18:58;;;;;;;1.7;1.3;;;;;;;17.19;76.09277;948.0682;;;;
2020/06/06 15:27:50;;;;;;;1.8;1.4;;;;;;;16.91;77.92676;948.1944;;;;
2020/06/06 15:30:37;;;;;;;3.1;1.8;;;;;;;16.9;78.76465;948.1552;;;;
2020/06/06 15:33:29;;;;;;;4.6;2.3;;;;;;;16.89;82.95605;948.0945;;;;
2020/06/06 15:35:49;;;;;;;2.6;2.1;;;;;;;16.55;86.1709;948.1071;;;;
2020/06/06 15:38:16;;;;;;;2.6;1.9;;;;;;;16.8;86.39355;948.188;;;;
2020/06/06 15:40:42;;;;;;;2.2;1.8;;;;;;;16.75;82.89453;948.1429;;;;
2020/06/06 15:45:49;;;;;;;1.6;1.4;;;;;;;16.66;82.69043;948.1687;;;;
2020/06/06 15:50:49;;;;;;;1.8;1.3;;;;;;;16.79;82.81934;948.0725;;;;
2020/06/06 15:53:23;;;;;;;2;1.4;;;;;;;16.83;85.10449;948.086;;;;
2020/06/06 15:55:44;;;;;;;1.4;1.3;;;;;;;16.83;83.61035;948.0334;;;;
2020/06/06 16:00:44;;;;;;;1.4;1.3;;;;;;;16.75;80.91113;948.0712;;;;
2020/06/06 16:03:28;;;;;;;1.4;1.2;;;;;;;16.79;81.16211;948.1811;;;;
2020/06/06 16:12:54;;;;;;;3.7;1.7;;;;;;;16.22;87.21191;948.4253;;;;
2020/06/06 16:15:30;;;;;;;2.3;1.6;;;;;;;16.21;87.52637;948.5109;;;;
2020/06/06 16:17:56;;;;;;;2.1;1.5;;;;;;;16.21;89.69531;948.5083;;;;
2020/06/06 16:25:33;;;;;;;5.1;2.5;;;;;;;15.85;95.01563;948.6077;;;;
2020/06/06 16:28:09;;;;;;;3.4;2.5;;;;;;;15.61;96.2998;948.5084;;;;
2020/06/06 16:38:15;;;;;;;3;2.8;;;;;;;15.28;99.8125;948.5019;;;;
2020/06/06 16:49:08;;;;;;;3.7;3.4;;;;;;;15.58;100;948.5778;;;;
2020/06/06 16:51:26;;;;;;;3.9;3.5;;;;;;;15.57;100;948.6199;;;;
2020/06/06 16:57:06;;;;;;;3.5;3.2;;;;;;;15.5;100;948.5909;;;;
2020/06/06 16:58:50;;;;;;;3.6;3.3;;;;;;;15.51;100;948.6063;;;;
2020/06/06 17:07:16;;;;;;;3.3;3;;;;;;;15.4;100;948.6764;;;;
2020/06/06 17:09:15;;;;;;;4.6;3;;;;;;;15.19;100;948.6789;;;;
2020/06/06 17:11:53;;;;;;;3.8;3.4;;;;;;;15.2;100;948.7668;;;;
2020/06/06 17:14:27;;;;;;;4.7;3.4;;;;;;;15.1;97.84082;948.8101;;;;
2020/06/06 17:21:55;;;;;;;3.4;3.1;;;;;;;15.05;100;948.7332;;;;
2020/06/06 17:24:38;;;;;;;4.7;3.5;;;;;;;14.92;100;948.7335;;;;
2020/06/06 17:27:07;;;;;;;4.5;3.5;;;;;;;14.54;100;948.7974;;;;